sensor_id;sensor_type;location;lat;lon;timestamp;P1;durP1;ratioP1;P2;durP2;ratioP2
49235;SDS011;35067;48.134;8.378;2023-11-18T00:00:24;133.17;;;15.20;;
49235;SDS011;35067;48.134;8.378;2023-11-18T00:01:25;124.38;;;13.68;;
49235;SDS011;35067;48.134;8.378;2023-11-18T00:02:32;55.42;;;8.98;;
49235;SDS011;35067;48.134;8.378;2023-11-18T00:03:33;51.80;;;9.40;;
49235;SDS011;35067;48.134;8.378;2023-11-18T00:04:35;27.70;;;6.88;;
49235;SDS011;35067;48.134;8.378;2023-11-18T00:05:35;16.80;;;6.60;;
49235;SDS011;35067;48.134;8.378;2023-11-18T00:06:36;23.30;;;7.03;;
49235;SDS011;35067;48.134;8.378;2023-11-18T00:07:37;13.73;;;5.40;;
49235;SDS011;35067;48.134;8.378;2023-11-18T00:08:38;39.72;;;8.60;;
49235;SDS011;35067;48.134;8.378;2023-11-18T00:09:39;15.25;;;6.13;;
49235;SDS011;35067;48.134;8.378;2023-11-18T00:10:40;16.33;;;4.55;;
49235;SDS011;35067;48.134;8.378;2023-11-18T00:11:41;27.90;;;5.43;;
49235;SDS011;35067;48.134;8.378;2023-11-18T00:12:42;20.25;;;4.38;;
49235;SDS011;35067;48.134;8.378;2023-11-18T00:13:43;69.97;;;9.87;;
49235;SDS011;35067;48.134;8.378;2023-11-18T00:14:43;87.20;;;12.23;;
49235;SDS011;35067;48.134;8.378;2023-11-18T00:15:45;121.03;;;14.98;;
49235;SDS011;35067;48.134;8.378;2023-11-18T00:16:48;82.10;;;12.40;;
49235;SDS011;35067;48.134;8.378;2023-11-18T00:17:48;79.90;;;8.73;;
49235;SDS011;35067;48.134;8.378;2023-11-18T00:18:49;28.60;;;4.20;;
49235;SDS011;35067;48.134;8.378;2023-11-18T00:19:50;46.40;;;6.10;;
49235;SDS011;35067;48.134;8.378;2023-11-18T00:20:50;109.43;;;12.50;;
49235;SDS011;35067;48.134;8.378;2023-11-18T00:21:51;21.73;;;4.43;;
49235;SDS011;35067;48.134;8.378;2023-11-18T00:22:52;12.87;;;4.13;;
49235;SDS011;35067;48.134;8.378;2023-11-18T00:23:55;34.97;;;7.22;;
49235;SDS011;35067;48.134;8.378;2023-11-18T00:24:58;59.78;;;8.30;;
49235;SDS011;35067;48.134;8.378;2023-11-18T00:25:59;26.27;;;5.60;;
49235;SDS011;35067;48.134;8.378;2023-11-18T00:27:00;55.87;;;10.60;;
49235;SDS011;35067;48.134;8.378;2023-11-18T00:28:06;39.58;;;7.43;;
49235;SDS011;35067;48.134;8.378;2023-11-18T00:29:09;82.47;;;12.60;;
49235;SDS011;35067;48.134;8.378;2023-11-18T00:30:10;184.55;;;21.08;;
49235;SDS011;35067;48.134;8.378;2023-11-18T00:31:12;353.38;;;31.17;;
49235;SDS011;35067;48.134;8.378;2023-11-18T00:32:12;330.43;;;32.97;;
49235;SDS011;35067;48.134;8.378;2023-11-18T00:33:13;308.57;;;29.53;;
49235;SDS011;35067;48.134;8.378;2023-11-18T00:34:14;358.40;;;29.90;;
49235;SDS011;35067;48.134;8.378;2023-11-18T00:35:14;227.13;;;18.83;;
49235;SDS011;35067;48.134;8.378;2023-11-18T00:36:15;205.43;;;19.20;;
49235;SDS011;35067;48.134;8.378;2023-11-18T00:37:16;216.97;;;20.30;;
49235;SDS011;35067;48.134;8.378;2023-11-18T00:38:17;157.02;;;12.80;;
49235;SDS011;35067;48.134;8.378;2023-11-18T00:39:17;194.57;;;17.30;;
49235;SDS011;35067;48.134;8.378;2023-11-18T00:40:20;214.02;;;14.65;;
49235;SDS011;35067;48.134;8.378;2023-11-18T00:41:21;215.87;;;16.63;;
49235;SDS011;35067;48.134;8.378;2023-11-18T00:42:22;243.82;;;22.75;;
49235;SDS011;35067;48.134;8.378;2023-11-18T00:43:23;176.60;;;15.53;;
49235;SDS011;35067;48.134;8.378;2023-11-18T00:44:24;168.90;;;14.57;;
49235;SDS011;35067;48.134;8.378;2023-11-18T00:45:25;260.37;;;23.43;;
49235;SDS011;35067;48.134;8.378;2023-11-18T00:46:25;52.30;;;7.90;;
49235;SDS011;35067;48.134;8.378;2023-11-18T00:47:26;58.40;;;8.10;;
49235;SDS011;35067;48.134;8.378;2023-11-18T00:48:27;33.00;;;6.43;;
49235;SDS011;35067;48.134;8.378;2023-11-18T00:49:28;9.55;;;4.03;;
49235;SDS011;35067;48.134;8.378;2023-11-18T00:50:28;6.77;;;4.10;;
49235;SDS011;35067;48.134;8.378;2023-11-18T00:51:29;8.40;;;4.17;;
49235;SDS011;35067;48.134;8.378;2023-11-18T00:52:30;8.17;;;5.00;;
49235;SDS011;35067;48.134;8.378;2023-11-18T00:53:30;6.27;;;4.83;;
49235;SDS011;35067;48.134;8.378;2023-11-18T00:54:31;6.47;;;4.47;;
49235;SDS011;35067;48.134;8.378;2023-11-18T00:55:32;8.00;;;4.45;;
49235;SDS011;35067;48.134;8.378;2023-11-18T00:56:33;6.07;;;3.90;;
49235;SDS011;35067;48.134;8.378;2023-11-18T00:57:34;5.43;;;3.63;;
49235;SDS011;35067;48.134;8.378;2023-11-18T00:58:35;5.05;;;3.50;;
49235;SDS011;35067;48.134;8.378;2023-11-18T00:59:43;7.95;;;4.18;;
49235;SDS011;35067;48.134;8.378;2023-11-18T01:00:43;9.38;;;3.72;;
49235;SDS011;35067;48.134;8.378;2023-11-18T01:01:45;6.32;;;3.70;;
49235;SDS011;35067;48.134;8.378;2023-11-18T01:02:45;12.30;;;4.30;;
49235;SDS011;35067;48.134;8.378;2023-11-18T01:03:48;11.40;;;5.03;;
49235;SDS011;35067;48.134;8.378;2023-11-18T01:04:49;35.27;;;6.83;;
49235;SDS011;35067;48.134;8.378;2023-11-18T01:05:50;77.50;;;9.63;;
49235;SDS011;35067;48.134;8.378;2023-11-18T01:06:51;72.20;;;6.90;;
49235;SDS011;35067;48.134;8.378;2023-11-18T01:07:51;58.30;;;7.50;;
49235;SDS011;35067;48.134;8.378;2023-11-18T01:08:52;126.93;;;11.67;;
49235;SDS011;35067;48.134;8.378;2023-11-18T01:09:53;62.20;;;6.83;;
49235;SDS011;35067;48.134;8.378;2023-11-18T01:10:54;99.17;;;11.53;;
49235;SDS011;35067;48.134;8.378;2023-11-18T01:11:54;74.43;;;8.70;;
49235;SDS011;35067;48.134;8.378;2023-11-18T01:12:55;94.97;;;10.10;;
49235;SDS011;35067;48.134;8.378;2023-11-18T01:13:57;97.03;;;11.95;;
49235;SDS011;35067;48.134;8.378;2023-11-18T01:14:58;70.03;;;10.97;;
49235;SDS011;35067;48.134;8.378;2023-11-18T01:15:59;64.38;;;9.90;;
49235;SDS011;35067;48.134;8.378;2023-11-18T01:17:00;111.43;;;15.80;;
49235;SDS011;35067;48.134;8.378;2023-11-18T01:18:00;94.57;;;10.40;;
49235;SDS011;35067;48.134;8.378;2023-11-18T01:19:02;35.33;;;5.93;;
49235;SDS011;35067;48.134;8.378;2023-11-18T01:20:03;87.83;;;10.73;;
49235;SDS011;35067;48.134;8.378;2023-11-18T01:21:09;36.60;;;8.93;;
49235;SDS011;35067;48.134;8.378;2023-11-18T01:22:10;24.03;;;5.97;;
49235;SDS011;35067;48.134;8.378;2023-11-18T01:23:11;13.13;;;5.55;;
49235;SDS011;35067;48.134;8.378;2023-11-18T01:24:12;7.03;;;4.00;;
49235;SDS011;35067;48.134;8.378;2023-11-18T01:25:14;10.25;;;5.28;;
49235;SDS011;35067;48.134;8.378;2023-11-18T01:26:18;5.63;;;3.65;;
49235;SDS011;35067;48.134;8.378;2023-11-18T01:27:19;6.00;;;3.63;;
49235;SDS011;35067;48.134;8.378;2023-11-18T01:28:21;7.55;;;4.50;;
49235;SDS011;35067;48.134;8.378;2023-11-18T01:29:22;7.97;;;4.60;;
49235;SDS011;35067;48.134;8.378;2023-11-18T01:30:23;7.00;;;4.10;;
49235;SDS011;35067;48.134;8.378;2023-11-18T01:31:24;6.27;;;4.20;;
49235;SDS011;35067;48.134;8.378;2023-11-18T01:32:24;6.43;;;4.37;;
49235;SDS011;35067;48.134;8.378;2023-11-18T01:33:25;6.80;;;3.80;;
49235;SDS011;35067;48.134;8.378;2023-11-18T01:34:26;4.57;;;3.60;;
49235;SDS011;35067;48.134;8.378;2023-11-18T01:35:28;6.57;;;3.53;;
49235;SDS011;35067;48.134;8.378;2023-11-18T01:36:28;4.53;;;2.80;;
49235;SDS011;35067;48.134;8.378;2023-11-18T01:37:30;3.90;;;3.03;;
49235;SDS011;35067;48.134;8.378;2023-11-18T01:38:31;4.18;;;2.70;;
49235;SDS011;35067;48.134;8.378;2023-11-18T01:39:35;3.47;;;2.70;;
49235;SDS011;35067;48.134;8.378;2023-11-18T01:40:36;4.50;;;2.58;;
49235;SDS011;35067;48.134;8.378;2023-11-18T01:41:37;3.20;;;2.73;;
49235;SDS011;35067;48.134;8.378;2023-11-18T01:42:38;4.00;;;2.77;;
49235;SDS011;35067;48.134;8.378;2023-11-18T01:43:41;3.85;;;2.53;;
49235;SDS011;35067;48.134;8.378;2023-11-18T01:44:46;6.05;;;2.78;;
49235;SDS011;35067;48.134;8.378;2023-11-18T01:45:47;3.30;;;2.60;;
49235;SDS011;35067;48.134;8.378;2023-11-18T01:46:48;3.67;;;2.47;;
49235;SDS011;35067;48.134;8.378;2023-11-18T01:47:49;2.60;;;2.33;;
49235;SDS011;35067;48.134;8.378;2023-11-18T01:48:50;2.90;;;2.33;;
49235;SDS011;35067;48.134;8.378;2023-11-18T01:49:52;3.50;;;2.30;;
49235;SDS011;35067;48.134;8.378;2023-11-18T01:50:53;4.40;;;2.42;;
49235;SDS011;35067;48.134;8.378;2023-11-18T01:51:58;3.65;;;2.40;;
49235;SDS011;35067;48.134;8.378;2023-11-18T01:53:01;3.97;;;2.50;;
49235;SDS011;35067;48.134;8.378;2023-11-18T01:54:02;4.83;;;2.93;;
49235;SDS011;35067;48.134;8.378;2023-11-18T01:55:05;4.97;;;2.65;;
49235;SDS011;35067;48.134;8.378;2023-11-18T01:56:07;3.38;;;2.90;;
49235;SDS011;35067;48.134;8.378;2023-11-18T01:57:08;2.80;;;2.58;;
49235;SDS011;35067;48.134;8.378;2023-11-18T01:58:09;2.83;;;2.10;;
49235;SDS011;35067;48.134;8.378;2023-11-18T01:59:11;4.00;;;2.50;;
49235;SDS011;35067;48.134;8.378;2023-11-18T02:00:18;3.67;;;2.58;;
49235;SDS011;35067;48.134;8.378;2023-11-18T02:01:19;3.83;;;2.60;;
49235;SDS011;35067;48.134;8.378;2023-11-18T02:02:20;4.80;;;2.95;;
49235;SDS011;35067;48.134;8.378;2023-11-18T02:03:21;3.80;;;2.67;;
49235;SDS011;35067;48.134;8.378;2023-11-18T02:04:21;4.73;;;3.00;;
49235;SDS011;35067;48.134;8.378;2023-11-18T02:05:22;3.73;;;2.70;;
49235;SDS011;35067;48.134;8.378;2023-11-18T02:06:23;4.47;;;3.00;;
49235;SDS011;35067;48.134;8.378;2023-11-18T02:07:24;3.40;;;2.90;;
49235;SDS011;35067;48.134;8.378;2023-11-18T02:08:24;3.73;;;2.70;;
49235;SDS011;35067;48.134;8.378;2023-11-18T02:09:27;3.10;;;2.47;;
49235;SDS011;35067;48.134;8.378;2023-11-18T02:10:28;4.50;;;3.08;;
49235;SDS011;35067;48.134;8.378;2023-11-18T02:11:39;4.23;;;2.93;;
49235;SDS011;35067;48.134;8.378;2023-11-18T02:14:11;4.57;;;3.10;;
49235;SDS011;35067;48.134;8.378;2023-11-18T02:15:16;3.72;;;2.70;;
49235;SDS011;35067;48.134;8.378;2023-11-18T02:16:18;4.53;;;2.92;;
49235;SDS011;35067;48.134;8.378;2023-11-18T02:17:22;4.72;;;3.20;;
49235;SDS011;35067;48.134;8.378;2023-11-18T02:18:24;4.63;;;2.80;;
49235;SDS011;35067;48.134;8.378;2023-11-18T02:19:27;3.90;;;2.70;;
49235;SDS011;35067;48.134;8.378;2023-11-18T02:20:30;3.42;;;2.83;;
49235;SDS011;35067;48.134;8.378;2023-11-18T02:21:31;3.15;;;2.85;;
49235;SDS011;35067;48.134;8.378;2023-11-18T02:22:33;3.90;;;2.80;;
49235;SDS011;35067;48.134;8.378;2023-11-18T02:23:34;4.03;;;3.17;;
49235;SDS011;35067;48.134;8.378;2023-11-18T02:24:35;3.47;;;2.30;;
49235;SDS011;35067;48.134;8.378;2023-11-18T02:25:44;4.40;;;2.80;;
49235;SDS011;35067;48.134;8.378;2023-11-18T02:26:46;3.40;;;2.50;;
49235;SDS011;35067;48.134;8.378;2023-11-18T02:27:47;4.23;;;2.93;;
49235;SDS011;35067;48.134;8.378;2023-11-18T02:28:48;5.07;;;3.47;;
49235;SDS011;35067;48.134;8.378;2023-11-18T02:29:49;5.65;;;3.42;;
49235;SDS011;35067;48.134;8.378;2023-11-18T02:30:52;4.20;;;3.10;;
49235;SDS011;35067;48.134;8.378;2023-11-18T02:34:40;5.15;;;3.40;;
49235;SDS011;35067;48.134;8.378;2023-11-18T02:35:52;4.72;;;2.85;;
49235;SDS011;35067;48.134;8.378;2023-11-18T02:36:58;3.92;;;2.78;;
49235;SDS011;35067;48.134;8.378;2023-11-18T02:38:00;3.72;;;2.80;;
49235;SDS011;35067;48.134;8.378;2023-11-18T02:39:04;6.07;;;3.30;;
49235;SDS011;35067;48.134;8.378;2023-11-18T02:40:11;3.00;;;2.67;;
49235;SDS011;35067;48.134;8.378;2023-11-18T02:41:17;4.93;;;2.90;;
49235;SDS011;35067;48.134;8.378;2023-11-18T02:42:20;4.57;;;3.80;;
49235;SDS011;35067;48.134;8.378;2023-11-18T02:43:22;5.68;;;3.20;;
49235;SDS011;35067;48.134;8.378;2023-11-18T02:44:25;3.72;;;2.90;;
49235;SDS011;35067;48.134;8.378;2023-11-18T02:45:29;5.45;;;3.30;;
49235;SDS011;35067;48.134;8.378;2023-11-18T02:46:32;4.50;;;3.25;;
49235;SDS011;35067;48.134;8.378;2023-11-18T02:47:33;4.95;;;3.60;;
49235;SDS011;35067;48.134;8.378;2023-11-18T02:48:34;6.20;;;3.33;;
49235;SDS011;35067;48.134;8.378;2023-11-18T02:49:38;3.80;;;3.10;;
49235;SDS011;35067;48.134;8.378;2023-11-18T02:50:40;5.93;;;3.28;;
49235;SDS011;35067;48.134;8.378;2023-11-18T02:51:43;5.20;;;3.08;;
49235;SDS011;35067;48.134;8.378;2023-11-18T02:52:45;4.82;;;3.17;;
49235;SDS011;35067;48.134;8.378;2023-11-18T02:53:46;5.07;;;3.40;;
49235;SDS011;35067;48.134;8.378;2023-11-18T02:54:46;4.57;;;3.33;;
49235;SDS011;35067;48.134;8.378;2023-11-18T02:55:47;4.93;;;3.20;;
49235;SDS011;35067;48.134;8.378;2023-11-18T02:56:48;4.63;;;3.07;;
49235;SDS011;35067;48.134;8.378;2023-11-18T02:57:49;4.80;;;3.40;;
49235;SDS011;35067;48.134;8.378;2023-11-18T02:58:51;4.50;;;3.03;;
49235;SDS011;35067;48.134;8.378;2023-11-18T02:59:52;5.40;;;3.43;;
49235;SDS011;35067;48.134;8.378;2023-11-18T03:00:52;6.27;;;3.90;;
49235;SDS011;35067;48.134;8.378;2023-11-18T03:01:53;3.43;;;2.60;;
49235;SDS011;35067;48.134;8.378;2023-11-18T03:02:55;4.15;;;3.03;;
49235;SDS011;35067;48.134;8.378;2023-11-18T03:03:55;4.43;;;3.13;;
49235;SDS011;35067;48.134;8.378;2023-11-18T03:04:56;3.90;;;2.87;;
49235;SDS011;35067;48.134;8.378;2023-11-18T03:05:58;3.92;;;2.70;;
49235;SDS011;35067;48.134;8.378;2023-11-18T03:06:59;4.25;;;3.08;;
49235;SDS011;35067;48.134;8.378;2023-11-18T03:08:00;4.93;;;3.30;;
49235;SDS011;35067;48.134;8.378;2023-11-18T03:09:01;3.63;;;2.90;;
49235;SDS011;35067;48.134;8.378;2023-11-18T03:10:07;5.28;;;3.50;;
49235;SDS011;35067;48.134;8.378;2023-11-18T03:11:16;4.97;;;3.45;;
49235;SDS011;35067;48.134;8.378;2023-11-18T03:12:17;5.53;;;3.20;;
49235;SDS011;35067;48.134;8.378;2023-11-18T03:13:18;5.20;;;3.93;;
49235;SDS011;35067;48.134;8.378;2023-11-18T03:14:19;4.33;;;3.17;;
49235;SDS011;35067;48.134;8.378;2023-11-18T03:15:20;3.70;;;3.07;;
49235;SDS011;35067;48.134;8.378;2023-11-18T03:16:22;5.65;;;3.28;;
49235;SDS011;35067;48.134;8.378;2023-11-18T03:17:24;5.25;;;3.47;;
49235;SDS011;35067;48.134;8.378;2023-11-18T03:18:25;4.53;;;3.40;;
49235;SDS011;35067;48.134;8.378;2023-11-18T03:19:25;3.80;;;3.00;;
49235;SDS011;35067;48.134;8.378;2023-11-18T03:20:26;5.53;;;3.40;;
49235;SDS011;35067;48.134;8.378;2023-11-18T03:21:28;6.13;;;3.80;;
49235;SDS011;35067;48.134;8.378;2023-11-18T03:22:29;5.20;;;3.67;;
49235;SDS011;35067;48.134;8.378;2023-11-18T03:23:30;5.63;;;3.85;;
49235;SDS011;35067;48.134;8.378;2023-11-18T03:24:32;3.92;;;3.10;;
49235;SDS011;35067;48.134;8.378;2023-11-18T03:25:33;5.90;;;3.40;;
49235;SDS011;35067;48.134;8.378;2023-11-18T03:26:33;7.47;;;3.40;;
49235;SDS011;35067;48.134;8.378;2023-11-18T03:27:34;4.53;;;3.33;;
49235;SDS011;35067;48.134;8.378;2023-11-18T03:28:35;5.77;;;3.50;;
49235;SDS011;35067;48.134;8.378;2023-11-18T03:29:36;3.78;;;2.80;;
49235;SDS011;35067;48.134;8.378;2023-11-18T03:30:39;5.75;;;3.50;;
49235;SDS011;35067;48.134;8.378;2023-11-18T03:31:42;4.70;;;3.25;;
49235;SDS011;35067;48.134;8.378;2023-11-18T03:32:44;7.32;;;4.13;;
49235;SDS011;35067;48.134;8.378;2023-11-18T03:33:45;6.20;;;3.83;;
49235;SDS011;35067;48.134;8.378;2023-11-18T03:34:46;5.83;;;3.87;;
49235;SDS011;35067;48.134;8.378;2023-11-18T03:35:46;9.10;;;5.00;;
49235;SDS011;35067;48.134;8.378;2023-11-18T03:36:48;6.95;;;4.38;;
49235;SDS011;35067;48.134;8.378;2023-11-18T03:37:48;4.87;;;3.43;;
49235;SDS011;35067;48.134;8.378;2023-11-18T03:38:49;7.97;;;3.83;;
49235;SDS011;35067;48.134;8.378;2023-11-18T03:39:50;4.20;;;3.40;;
49235;SDS011;35067;48.134;8.378;2023-11-18T03:40:51;6.27;;;3.60;;
49235;SDS011;35067;48.134;8.378;2023-11-18T03:41:52;6.03;;;4.00;;
49235;SDS011;35067;48.134;8.378;2023-11-18T03:42:52;6.60;;;3.70;;
49235;SDS011;35067;48.134;8.378;2023-11-18T03:43:53;6.67;;;3.80;;
49235;SDS011;35067;48.134;8.378;2023-11-18T03:44:54;5.87;;;3.80;;
49235;SDS011;35067;48.134;8.378;2023-11-18T03:45:55;5.00;;;3.33;;
49235;SDS011;35067;48.134;8.378;2023-11-18T03:46:56;6.15;;;3.70;;
49235;SDS011;35067;48.134;8.378;2023-11-18T03:47:57;5.13;;;3.43;;
49235;SDS011;35067;48.134;8.378;2023-11-18T03:48:57;6.50;;;3.90;;
49235;SDS011;35067;48.134;8.378;2023-11-18T03:49:58;6.17;;;3.63;;
49235;SDS011;35067;48.134;8.378;2023-11-18T03:50:59;5.00;;;3.43;;
49235;SDS011;35067;48.134;8.378;2023-11-18T03:52:01;7.40;;;3.92;;
49235;SDS011;35067;48.134;8.378;2023-11-18T03:53:02;5.20;;;3.27;;
49235;SDS011;35067;48.134;8.378;2023-11-18T03:54:03;4.25;;;3.25;;
49235;SDS011;35067;48.134;8.378;2023-11-18T03:55:04;5.40;;;3.10;;
49235;SDS011;35067;48.134;8.378;2023-11-18T03:56:05;5.60;;;3.28;;
49235;SDS011;35067;48.134;8.378;2023-11-18T03:57:07;6.57;;;3.65;;
49235;SDS011;35067;48.134;8.378;2023-11-18T03:58:07;4.70;;;3.33;;
49235;SDS011;35067;48.134;8.378;2023-11-18T03:59:08;4.65;;;2.80;;
49235;SDS011;35067;48.134;8.378;2023-11-18T04:00:10;4.80;;;3.30;;
49235;SDS011;35067;48.134;8.378;2023-11-18T04:01:12;3.67;;;3.05;;
49235;SDS011;35067;48.134;8.378;2023-11-18T04:02:23;5.57;;;3.53;;
49235;SDS011;35067;48.134;8.378;2023-11-18T04:03:24;6.15;;;3.80;;
49235;SDS011;35067;48.134;8.378;2023-11-18T04:04:25;4.80;;;3.47;;
49235;SDS011;35067;48.134;8.378;2023-11-18T04:05:26;3.70;;;3.27;;
49235;SDS011;35067;48.134;8.378;2023-11-18T04:06:26;4.60;;;3.30;;
49235;SDS011;35067;48.134;8.378;2023-11-18T04:07:27;6.40;;;3.00;;
49235;SDS011;35067;48.134;8.378;2023-11-18T04:08:28;3.95;;;3.28;;
49235;SDS011;35067;48.134;8.378;2023-11-18T04:09:29;4.63;;;3.07;;
49235;SDS011;35067;48.134;8.378;2023-11-18T04:10:30;3.80;;;2.95;;
49235;SDS011;35067;48.134;8.378;2023-11-18T04:11:31;3.57;;;2.70;;
49235;SDS011;35067;48.134;8.378;2023-11-18T04:12:32;4.63;;;3.07;;
49235;SDS011;35067;48.134;8.378;2023-11-18T04:13:32;4.13;;;3.23;;
49235;SDS011;35067;48.134;8.378;2023-11-18T04:14:33;4.10;;;3.07;;
49235;SDS011;35067;48.134;8.378;2023-11-18T04:15:34;3.83;;;2.70;;
49235;SDS011;35067;48.134;8.378;2023-11-18T04:16:35;6.40;;;3.05;;
49235;SDS011;35067;48.134;8.378;2023-11-18T04:17:37;3.83;;;2.83;;
49235;SDS011;35067;48.134;8.378;2023-11-18T04:18:40;6.07;;;2.90;;
49235;SDS011;35067;48.134;8.378;2023-11-18T04:19:41;4.30;;;3.42;;
49235;SDS011;35067;48.134;8.378;2023-11-18T04:20:42;3.50;;;2.60;;
49235;SDS011;35067;48.134;8.378;2023-11-18T04:21:42;3.93;;;3.10;;
49235;SDS011;35067;48.134;8.378;2023-11-18T04:22:48;3.65;;;2.80;;
49235;SDS011;35067;48.134;8.378;2023-11-18T04:23:48;5.90;;;3.77;;
49235;SDS011;35067;48.134;8.378;2023-11-18T04:24:49;4.53;;;3.30;;
49235;SDS011;35067;48.134;8.378;2023-11-18T04:25:50;3.73;;;2.80;;
49235;SDS011;35067;48.134;8.378;2023-11-18T04:26:51;3.80;;;2.83;;
49235;SDS011;35067;48.134;8.378;2023-11-18T04:27:52;7.63;;;3.03;;
49235;SDS011;35067;48.134;8.378;2023-11-18T04:28:52;3.93;;;3.03;;
49235;SDS011;35067;48.134;8.378;2023-11-18T04:29:54;4.03;;;3.22;;
49235;SDS011;35067;48.134;8.378;2023-11-18T04:30:54;6.80;;;3.10;;
49235;SDS011;35067;48.134;8.378;2023-11-18T04:31:55;4.32;;;3.00;;
49235;SDS011;35067;48.134;8.378;2023-11-18T04:32:56;7.57;;;3.30;;
49235;SDS011;35067;48.134;8.378;2023-11-18T04:33:57;3.53;;;2.90;;
49235;SDS011;35067;48.134;8.378;2023-11-18T04:34:57;3.77;;;2.80;;
49235;SDS011;35067;48.134;8.378;2023-11-18T04:35:59;4.88;;;3.03;;
49235;SDS011;35067;48.134;8.378;2023-11-18T04:37:00;3.27;;;2.40;;
49235;SDS011;35067;48.134;8.378;2023-11-18T04:38:01;4.47;;;3.27;;
49235;SDS011;35067;48.134;8.378;2023-11-18T04:39:02;4.70;;;3.33;;
49235;SDS011;35067;48.134;8.378;2023-11-18T04:40:03;5.97;;;3.03;;
49235;SDS011;35067;48.134;8.378;2023-11-18T04:41:09;5.93;;;3.15;;
49235;SDS011;35067;48.134;8.378;2023-11-18T04:42:10;3.97;;;3.00;;
49235;SDS011;35067;48.134;8.378;2023-11-18T04:43:10;3.67;;;2.77;;
49235;SDS011;35067;48.134;8.378;2023-11-18T04:44:12;5.35;;;3.35;;
49235;SDS011;35067;48.134;8.378;2023-11-18T04:45:13;4.00;;;2.83;;
49235;SDS011;35067;48.134;8.378;2023-11-18T04:46:14;4.03;;;3.03;;
49235;SDS011;35067;48.134;8.378;2023-11-18T04:47:15;5.93;;;4.07;;
49235;SDS011;35067;48.134;8.378;2023-11-18T04:48:18;4.07;;;3.00;;
49235;SDS011;35067;48.134;8.378;2023-11-18T04:49:21;5.00;;;3.15;;
49235;SDS011;35067;48.134;8.378;2023-11-18T04:50:22;5.27;;;3.43;;
49235;SDS011;35067;48.134;8.378;2023-11-18T04:51:22;7.93;;;3.93;;
49235;SDS011;35067;48.134;8.378;2023-11-18T04:52:23;7.03;;;4.10;;
49235;SDS011;35067;48.134;8.378;2023-11-18T04:53:24;6.10;;;3.92;;
49235;SDS011;35067;48.134;8.378;2023-11-18T04:54:25;4.93;;;3.25;;
49235;SDS011;35067;48.134;8.378;2023-11-18T04:55:26;7.70;;;4.00;;
49235;SDS011;35067;48.134;8.378;2023-11-18T04:56:27;5.43;;;3.73;;
49235;SDS011;35067;48.134;8.378;2023-11-18T04:57:27;5.57;;;3.57;;
49235;SDS011;35067;48.134;8.378;2023-11-18T04:58:28;7.70;;;4.10;;
49235;SDS011;35067;48.134;8.378;2023-11-18T04:59:29;8.17;;;3.77;;
49235;SDS011;35067;48.134;8.378;2023-11-18T05:00:33;6.25;;;3.35;;
49235;SDS011;35067;48.134;8.378;2023-11-18T05:01:34;5.65;;;3.67;;
49235;SDS011;35067;48.134;8.378;2023-11-18T05:02:39;6.05;;;3.40;;
49235;SDS011;35067;48.134;8.378;2023-11-18T05:03:40;5.30;;;3.72;;
49235;SDS011;35067;48.134;8.378;2023-11-18T05:04:41;4.93;;;3.17;;
49235;SDS011;35067;48.134;8.378;2023-11-18T05:05:42;6.50;;;3.57;;
49235;SDS011;35067;48.134;8.378;2023-11-18T05:06:42;4.37;;;3.17;;
49235;SDS011;35067;48.134;8.378;2023-11-18T05:07:43;5.17;;;3.73;;
49235;SDS011;35067;48.134;8.378;2023-11-18T05:08:44;4.57;;;3.27;;
49235;SDS011;35067;48.134;8.378;2023-11-18T05:09:45;5.35;;;3.38;;
49235;SDS011;35067;48.134;8.378;2023-11-18T05:10:49;4.90;;;3.77;;
49235;SDS011;35067;48.134;8.378;2023-11-18T05:11:50;6.85;;;3.88;;
49235;SDS011;35067;48.134;8.378;2023-11-18T05:12:52;6.85;;;4.30;;
49235;SDS011;35067;48.134;8.378;2023-11-18T05:13:55;4.53;;;3.38;;
49235;SDS011;35067;48.134;8.378;2023-11-18T05:14:56;5.73;;;3.47;;
49235;SDS011;35067;48.134;8.378;2023-11-18T05:15:57;6.93;;;3.83;;
49235;SDS011;35067;48.134;8.378;2023-11-18T05:16:58;3.97;;;3.10;;
49235;SDS011;35067;48.134;8.378;2023-11-18T05:17:58;5.97;;;3.57;;
49235;SDS011;35067;48.134;8.378;2023-11-18T05:18:59;6.27;;;3.33;;
49235;SDS011;35067;48.134;8.378;2023-11-18T05:20:00;6.07;;;3.80;;
49235;SDS011;35067;48.134;8.378;2023-11-18T05:21:03;4.78;;;3.60;;
49235;SDS011;35067;48.134;8.378;2023-11-18T05:22:05;5.40;;;3.70;;
49235;SDS011;35067;48.134;8.378;2023-11-18T05:23:06;6.30;;;3.80;;
49235;SDS011;35067;48.134;8.378;2023-11-18T05:24:09;5.45;;;3.63;;
49235;SDS011;35067;48.134;8.378;2023-11-18T05:25:10;8.57;;;3.73;;
49235;SDS011;35067;48.134;8.378;2023-11-18T05:26:11;5.10;;;3.47;;
49235;SDS011;35067;48.134;8.378;2023-11-18T05:27:12;5.23;;;3.50;;
49235;SDS011;35067;48.134;8.378;2023-11-18T05:28:13;8.90;;;3.30;;
49235;SDS011;35067;48.134;8.378;2023-11-18T05:29:15;5.32;;;3.65;;
49235;SDS011;35067;48.134;8.378;2023-11-18T05:30:17;5.30;;;3.97;;
49235;SDS011;35067;48.134;8.378;2023-11-18T05:31:18;5.93;;;3.75;;
49235;SDS011;35067;48.134;8.378;2023-11-18T05:32:18;5.73;;;3.33;;
49235;SDS011;35067;48.134;8.378;2023-11-18T05:33:20;6.15;;;3.90;;
49235;SDS011;35067;48.134;8.378;2023-11-18T05:34:21;4.67;;;3.53;;
49235;SDS011;35067;48.134;8.378;2023-11-18T05:35:22;6.00;;;3.70;;
49235;SDS011;35067;48.134;8.378;2023-11-18T05:36:28;4.65;;;3.40;;
49235;SDS011;35067;48.134;8.378;2023-11-18T05:37:31;5.78;;;4.07;;
49235;SDS011;35067;48.134;8.378;2023-11-18T05:38:37;5.55;;;4.13;;
49235;SDS011;35067;48.134;8.378;2023-11-18T05:39:38;7.97;;;3.80;;
49235;SDS011;35067;48.134;8.378;2023-11-18T05:40:44;5.78;;;3.63;;
49235;SDS011;35067;48.134;8.378;2023-11-18T05:41:55;5.35;;;3.50;;
49235;SDS011;35067;48.134;8.378;2023-11-18T05:42:57;5.13;;;3.40;;
49235;SDS011;35067;48.134;8.378;2023-11-18T05:43:58;5.15;;;3.25;;
49235;SDS011;35067;48.134;8.378;2023-11-18T05:44:59;5.30;;;3.90;;
49235;SDS011;35067;48.134;8.378;2023-11-18T05:46:01;4.82;;;3.55;;
49235;SDS011;35067;48.134;8.378;2023-11-18T05:47:16;5.78;;;3.78;;
49235;SDS011;35067;48.134;8.378;2023-11-18T05:48:17;5.90;;;3.77;;
49235;SDS011;35067;48.134;8.378;2023-11-18T05:49:17;5.93;;;4.03;;
49235;SDS011;35067;48.134;8.378;2023-11-18T05:50:24;5.72;;;3.67;;
49235;SDS011;35067;48.134;8.378;2023-11-18T05:51:26;7.80;;;4.03;;
49235;SDS011;35067;48.134;8.378;2023-11-18T05:52:26;6.53;;;4.43;;
49235;SDS011;35067;48.134;8.378;2023-11-18T05:53:27;6.40;;;3.73;;
49235;SDS011;35067;48.134;8.378;2023-11-18T05:54:29;6.07;;;4.13;;
49235;SDS011;35067;48.134;8.378;2023-11-18T05:55:30;6.95;;;4.15;;
49235;SDS011;35067;48.134;8.378;2023-11-18T05:56:31;6.53;;;4.03;;
49235;SDS011;35067;48.134;8.378;2023-11-18T05:57:31;5.83;;;4.23;;
49235;SDS011;35067;48.134;8.378;2023-11-18T05:58:32;6.93;;;3.80;;
49235;SDS011;35067;48.134;8.378;2023-11-18T05:59:33;8.50;;;4.68;;
49235;SDS011;35067;48.134;8.378;2023-11-18T06:00:34;6.60;;;4.40;;
49235;SDS011;35067;48.134;8.378;2023-11-18T06:01:35;8.03;;;4.60;;
49235;SDS011;35067;48.134;8.378;2023-11-18T06:02:37;6.68;;;4.80;;
49235;SDS011;35067;48.134;8.378;2023-11-18T06:03:39;7.82;;;4.05;;
49235;SDS011;35067;48.134;8.378;2023-11-18T06:04:42;6.30;;;3.67;;
49235;SDS011;35067;48.134;8.378;2023-11-18T06:05:43;6.30;;;4.32;;
49235;SDS011;35067;48.134;8.378;2023-11-18T06:06:44;6.97;;;3.90;;
49235;SDS011;35067;48.134;8.378;2023-11-18T06:07:45;5.67;;;3.80;;
49235;SDS011;35067;48.134;8.378;2023-11-18T06:08:47;5.82;;;3.38;;
49235;SDS011;35067;48.134;8.378;2023-11-18T06:09:48;5.65;;;3.67;;
49235;SDS011;35067;48.134;8.378;2023-11-18T06:10:50;5.90;;;3.90;;
49235;SDS011;35067;48.134;8.378;2023-11-18T06:11:56;5.95;;;4.15;;
49235;SDS011;35067;48.134;8.378;2023-11-18T06:12:57;7.07;;;4.73;;
49235;SDS011;35067;48.134;8.378;2023-11-18T06:13:58;11.77;;;6.03;;